Time;durP1;ratioP1;P1;durP2;ratioP2;P2;SDS_P1;SDS_P2;PMS_P1;PMS_P2;Temp;Humidity;BMP_temperature;BMP_pressure;BME280_temperature;BME280_humidity;BME280_pressure;Samples;Min_cycle;Max_cycle;Signal;HPM_P1;HPM_P2
2023/04/13 00:01:37;;;;;;;;;;;;;;;;;;5050201;28;19929;-57
2023/04/13 00:04:03;;;;;;;;;;;;;;;;;;5051039;28;19927;-58
2023/04/13 00:06:29;;;;;;;;;;;;;;;;;;5050595;28;19932;-57
2023/04/13 00:08:55;;;;;;;;;;;;;;;;;;5050441;28;20015;-56
2023/04/13 00:11:21;;;;;;;;;;;;;;;;;;5051017;28;19968;-58
2023/04/13 00:13:47;;;;;;;;;;;;;;;;;;5050702;28;20011;-58
2023/04/13 00:16:13;;;;;;;;;;;;;;;;;;5050501;28;19925;-58
2023/04/13 00:18:39;;;;;;;;;;;;;;;;;;5053078;28;19925;-58
2023/04/13 00:21:05;;;;;;;;;;;;;;;;;;5054990;28;19924;-58
2023/04/13 00:23:30;;;;;;;;;;;;;;;;;;5054160;28;19943;-58
2023/04/13 00:25:57;;;;;;;;;;;;;;;;;;5054839;28;19990;-58
2023/04/13 00:28:23;;;;;;;;;;;;;;;;;;5054721;28;19928;-58
2023/04/13 00:30:49;;;;;;;;;;;;;;;;;;5054295;28;19928;-58
2023/04/13 00:33:15;;;;;;;;;;;;;;;;;;5054631;28;19951;-58
2023/04/13 00:35:42;;;;;;;;;;;;;;;;;;5053441;28;19925;-58
2023/04/13 00:38:08;;;;;;;;;;;;;;;;;;5052826;28;19992;-55
2023/04/13 00:40:36;;;;;;;;;;;;;;;;;;5054720;28;19932;-57
2023/04/13 00:43:04;;;;;;;;;;;;;;;;;;5054821;28;19921;-56
2023/04/13 00:45:30;;;;;;;;;;;;;;;;;;5054096;28;20455;-57
2023/04/13 00:47:56;;;;;;;;;;;;;;;;;;5054462;28;19937;-55
2023/04/13 00:50:22;;;;;;;;;;;;;;;;;;5054534;28;19921;-58
2023/04/13 00:52:48;;;;;;;;;;;;;;;;;;5054320;28;20069;-58
2023/04/13 00:55:19;;;;;;;;;;;;;;;;;;5054391;28;20011;-58
2023/04/13 00:57:48;;;;;;;;;;;;;;;;;;5054538;28;19963;-57
2023/04/13 01:00:16;;;;;;;;;;;;;;;;;;5053937;28;19921;-57
2023/04/13 01:02:42;;;;;;;;;;;;;;;;;;5052886;28;19932;-58
2023/04/13 01:05:08;;;;;;;;;;;;;;;;;;5054385;28;19924;-58
2023/04/13 01:07:36;;;;;;;;;;;;;;;;;;5054039;28;19956;-58
2023/04/13 01:10:02;;;;;;;;;;;;;;;;;;5053945;28;19925;-56
2023/04/13 01:12:28;;;;;;;;;;;;;;;;;;5054206;28;19925;-58
2023/04/13 01:14:55;;;;;;;;;;;;;;;;;;5054090;28;19925;-57
2023/04/13 01:17:21;;;;;;;;;;;;;;;;;;5053561;28;20355;-57
2023/04/13 01:19:50;;;;;;;;;;;;;;;;;;5053992;28;20427;-58
2023/04/13 01:22:16;;;;;;;;;;;;;;;;;;5053866;28;19925;-57
2023/04/13 01:24:42;;;;;;;;;;;;;;;;;;5053400;28;19927;-59
2023/04/13 01:27:08;;;;;;;;;;;;;;;;;;5053676;28;20371;-58
2023/04/13 01:29:35;;;;;;;;;;;;;;;;;;5053471;28;19928;-58
2023/04/13 01:32:01;;;;;;;;;;;;;;;;;;5053231;28;19929;-57
2023/04/13 01:34:26;;;;;;;;;;;;;;;;;;5053912;28;20398;-58
2023/04/13 01:36:52;;;;;;;;;;;;;;;;;;5052523;28;19921;-58
2023/04/13 01:39:18;;;;;;;;;;;;;;;;;;5053143;28;19920;-58
2023/04/13 01:41:45;;;;;;;;;;;;;;;;;;5053288;28;19920;-58
2023/04/13 01:44:11;;;;;;;;;;;;;;;;;;5053636;28;19924;-57
2023/04/13 01:46:38;;;;;;;;;;;;;;;;;;5052893;28;19968;-57
2023/04/13 01:49:04;;;;;;;;;;;;;;;;;;5053438;28;20007;-56
2023/04/13 01:51:31;;;;;;;;;;;;;;;;;;5053232;28;19931;-57
2023/04/13 01:53:57;;;;;;;;;;;;;;;;;;5052927;28;19924;-58
2023/04/13 01:56:25;;;;;;;;;;;;;;;;;;5053326;28;19951;-58
2023/04/13 01:58:52;;;;;;;;;;;;;;;;;;5053196;28;19929;-57
2023/04/13 02:01:18;;;;;;;;;;;;;;;;;;5052477;28;19931;-58
2023/04/13 02:03:44;;;;;;;;;;;;;;;;;;5053214;28;19921;-57
2023/04/13 02:06:10;;;;;;;;;;;;;;;;;;5053098;28;20375;-57
2023/04/13 02:08:36;;;;;;;;;;;;;;;;;;5052655;28;19960;-57
2023/04/13 02:11:03;;;;;;;;;;;;;;;;;;5053107;28;20011;-57
2023/04/13 02:13:29;;;;;;;;;;;;;;;;;;5053158;28;20638;-58
2023/04/13 02:15:55;;;;;;;;;;;;;;;;;;5052269;28;19931;-58
2023/04/13 02:18:22;;;;;;;;;;;;;;;;;;5052982;28;20775;-57
2023/04/13 02:20:48;;;;;;;;;;;;;;;;;;5052575;28;19964;-58
2023/04/13 02:23:14;;;;;;;;;;;;;;;;;;5051991;28;19972;-57
2023/04/13 02:25:40;;;;;;;;;;;;;;;;;;5052585;28;20004;-58
2023/04/13 02:28:07;;;;;;;;;;;;;;;;;;5052761;28;19925;-58
2023/04/13 02:30:33;;;;;;;;;;;;;;;;;;5051656;28;19921;-58
2023/04/13 02:32:59;;;;;;;;;;;;;;;;;;5052436;28;19932;-59
2023/04/13 02:35:26;;;;;;;;;;;;;;;;;;5052654;28;20377;-58
2023/04/13 02:37:52;;;;;;;;;;;;;;;;;;5052069;28;19972;-58
2023/04/13 02:40:18;;;;;;;;;;;;;;;;;;5051515;28;20358;-58
2023/04/13 02:42:44;;;;;;;;;;;;;;;;;;5052525;28;19948;-57
2023/04/13 02:45:17;;;;;;;;;;;;;;;;;;5051843;28;19925;-57
2023/04/13 02:47:43;;;;;;;;;;;;;;;;;;5052343;28;19977;-55
2023/04/13 02:50:09;;;;;;;;;;;;;;;;;;5052373;28;20387;-57
2023/04/13 02:52:36;;;;;;;;;;;;;;;;;;5051844;28;19947;-57
2023/04/13 02:55:03;;;;;;;;;;;;;;;;;;5052193;28;20383;-58
2023/04/13 02:57:30;;;;;;;;;;;;;;;;;;5050953;28;19921;-58
2023/04/13 02:59:56;;;;;;;;;;;;;;;;;;5051200;28;20575;-58
2023/04/13 03:02:25;;;;;;;;;;;;;;;;;;5052169;28;19921;-58
2023/04/13 03:04:51;;;;;;;;;;;;;;;;;;5051758;28;19921;-59
2023/04/13 03:07:17;;;;;;;;;;;;;;;;;;5051302;28;19931;-57
2023/04/13 03:09:46;;;;;;;;;;;;;;;;;;5052131;28;20481;-58
2023/04/13 03:12:12;;;;;;;;;;;;;;;;;;5051858;28;19963;-56
2023/04/13 03:14:38;;;;;;;;;;;;;;;;;;5051346;28;20320;-58
2023/04/13 03:17:05;;;;;;;;;;;;;;;;;;5051904;28;19951;-58
2023/04/13 03:19:31;;;;;;;;;;;;;;;;;;5051808;28;19975;-58
2023/04/13 03:21:57;;;;;;;;;;;;;;;;;;5050813;28;20385;-59
2023/04/13 03:24:26;;;;;;;;;;;;;;;;;;5051681;28;19927;-58
2023/04/13 03:26:54;;;;;;;;;;;;;;;;;;5051423;28;20353;-58
2023/04/13 03:29:19;;;;;;;;;;;;;;;;;;5051108;28;20560;-58
2023/04/13 03:31:47;;;;;;;;;;;;;;;;;;5050882;28;21211;-58
2023/04/13 03:34:13;;;;;;;;;;;;;;;;;;5051690;28;20019;-57
2023/04/13 03:36:39;;;;;;;;;;;;;;;;;;5051100;28;19921;-58
2023/04/13 03:39:05;;;;;;;;;;;;;;;;;;5051257;28;19964;-58
2023/04/13 03:41:31;;;;;;;;;;;;;;;;;;5051332;28;19931;-58
2023/04/13 03:43:57;;;;;;;;;;;;;;;;;;5050747;28;19925;-58
2023/04/13 03:46:23;;;;;;;;;;;;;;;;;;5051211;28;19974;-58
2023/04/13 03:48:50;;;;;;;;;;;;;;;;;;5051289;28;19927;-57
2023/04/13 03:51:16;;;;;;;;;;;;;;;;;;5050525;28;20367;-58
2023/04/13 03:53:42;;;;;;;;;;;;;;;;;;5051367;28;20324;-57
2023/04/13 03:56:08;;;;;;;;;;;;;;;;;;5051155;28;20302;-58
2023/04/13 03:58:34;;;;;;;;;;;;;;;;;;5049183;28;19925;-58
2023/04/13 04:01:00;;;;;;;;;;;;;;;;;;5051070;28;19932;-58
2023/04/13 04:03:26;;;;;;;;;;;;;;;;;;5051055;28;19928;-58
2023/04/13 04:05:52;;;;;;;;;;;;;;;;;;5050698;28;19921;-57
2023/04/13 04:08:18;;;;;;;;;;;;;;;;;;5051285;28;19931;-57
2023/04/13 04:10:44;;;;;;;;;;;;;;;;;;5051127;28;19921;-58
2023/04/13 04:13:10;;;;;;;;;;;;;;;;;;5050464;28;20062;-57
2023/04/13 04:15:36;;;;;;;;;;;;;;;;;;5051144;28;20756;-57
2023/04/13 04:18:02;;;;;;;;;;;;;;;;;;5051015;28;20029;-58
2023/04/13 04:20:28;;;;;;;;;;;;;;;;;;5050383;28;20016;-58
2023/04/13 04:22:59;;;;;;;;;;;;;;;;;;5050657;28;20070;-58
2023/04/13 04:25:26;;;;;;;;;;;;;;;;;;5050863;28;19921;-57
2023/04/13 04:27:56;;;;;;;;;;;;;;;;;;5050306;28;20004;-58
2023/04/13 04:30:22;;;;;;;;;;;;;;;;;;5049125;28;19929;-58
2023/04/13 04:32:51;;;;;;;;;;;;;;;;;;5050891;28;19928;-58
2023/04/13 04:35:19;;;;;;;;;;;;;;;;;;5050333;28;20367;-58
2023/04/13 04:37:48;;;;;;;;;;;;;;;;;;5050575;28;19921;-58
2023/04/13 04:40:14;;;;;;;;;;;;;;;;;;5050735;28;19928;-58
2023/04/13 04:42:40;;;;;;;;;;;;;;;;;;5050310;28;20375;-58
2023/04/13 04:45:07;;;;;;;;;;;;;;;;;;5050602;28;19921;-58
2023/04/13 04:47:40;;;;;;;;;;;;;;;;;;5050230;28;19935;-58
2023/04/13 04:50:06;;;;;;;;;;;;;;;;;;5049903;28;19925;-58
2023/04/13 04:52:33;;;;;;;;;;;;;;;;;;5050723;28;20050;-57
2023/04/13 04:55:01;;;;;;;;;;;;;;;;;;5050696;28;20003;-57
2023/04/13 04:57:27;;;;;;;;;;;;;;;;;;5050143;28;19921;-58
2023/04/13 04:59:52;;;;;;;;;;;;;;;;;;5050407;28;19924;-57
2023/04/13 05:02:19;;;;;;;;;;;;;;;;;;5050665;28;19921;-58
2023/04/13 05:04:45;;;;;;;;;;;;;;;;;;5051802;28;19932;-58
2023/04/13 05:07:15;;;;;;;;;;;;;;;;;;5047988;28;19935;-59
2023/04/13 05:09:42;;;;;;;;;;;;;;;;;;5043527;28;19972;-59
2023/04/13 05:12:08;;;;;;;;;;;;;;;;;;5052817;28;20011;-58
2023/04/13 05:14:35;;;;;;;;;;;;;;;;;;5053516;28;20463;-61
2023/04/13 05:17:01;;;;;;;;;;;;;;;;;;5052410;28;19927;-59
2023/04/13 05:19:26;;;;;;;;;;;;;;;;;;5052770;28;20020;-61
2023/04/13 05:21:53;;;;;;;;;;;;;;;;;;5052993;28;20350;-60
2023/04/13 05:24:18;;;;;;;;;;;;;;;;;;5053383;28;19921;-60
2023/04/13 05:26:44;;;;;;;;;;;;;;;;;;5052195;28;19929;-60
2023/04/13 05:29:10;;;;;;;;;;;;;;;;;;5053677;28;19950;-59
2023/04/13 05:31:36;;;;;;;;;;;;;;;;;;5052765;28;19925;-59
2023/04/13 05:34:02;;;;;;;;;;;;;;;;;;5052185;28;19924;-59
2023/04/13 05:36:30;;;;;;;;;;;;;;;;;;5053128;28;19924;-60
2023/04/13 05:38:56;;;;;;;;;;;;;;;;;;5053198;28;19921;-60
2023/04/13 05:41:22;;;;;;;;;;;;;;;;;;5053109;28;19971;-59
2023/04/13 05:43:48;;;;;;;;;;;;;;;;;;5052829;28;19921;-60
2023/04/13 05:46:14;;;;;;;;;;;;;;;;;;5052699;28;19994;-59
2023/04/13 05:48:42;;;;;;;;;;;;;;;;;;5052667;28;19929;-59
2023/04/13 05:51:08;;;;;;;;;;;;;;;;;;5051776;28;20379;-58
2023/04/13 05:53:35;;;;;;;;;;;;;;;;;;5052982;28;19978;-59
2023/04/13 05:56:01;;;;;;;;;;;;;;;;;;5051028;28;19920;-59
2023/04/13 05:58:27;;;;;;;;;;;;;;;;;;5051468;28;19939;-59
2023/04/13 06:00:53;;;;;;;;;;;;;;;;;;5051850;28;19967;-58
2023/04/13 06:03:19;;;;;;;;;;;;;;;;;;5052235;28;19921;-59
2023/04/13 06:05:45;;;;;;;;;;;;;;;;;;5051644;28;19925;-60
2023/04/13 06:08:12;;;;;;;;;;;;;;;;;;5052173;28;19932;-60
2023/04/13 06:10:38;;;;;;;;;;;;;;;;;;5052006;28;19921;-59
2023/04/13 06:13:04;;;;;;;;;;;;;;;;;;5051982;28;19925;-59
2023/04/13 06:15:30;;;;;;;;;;;;;;;;;;5050595;28;19921;-58
2023/04/13 06:17:56;;;;;;;;;;;;;;;;;;5052162;28;19925;-57
2023/04/13 06:20:22;;;;;;;;;;;;;;;;;;5051348;28;19955;-58
2023/04/13 06:22:47;;;;;;;;;;;;;;;;;;5051862;28;19928;-60
2023/04/13 06:25:13;;;;;;;;;;;;;;;;;;5052337;28;19927;-60
2023/04/13 06:27:42;;;;;;;;;;;;;;;;;;5051518;28;19929;-59
2023/04/13 06:30:08;;;;;;;;;;;;;;;;;;5052124;28;20386;-59
2023/04/13 06:32:34;;;;;;;;;;;;;;;;;;5051199;28;19925;-58
2023/04/13 06:34:59;;;;;;;;;;;;;;;;;;5043585;28;19924;-59
2023/04/13 06:37:26;;;;;;;;;;;;;;;;;;5051050;28;19979;-61
2023/04/13 06:39:52;;;;;;;;;;;;;;;;;;5051587;28;19925;-60
2023/04/13 06:42:18;;;;;;;;;;;;;;;;;;5050783;28;20311;-61
2023/04/13 06:44:44;;;;;;;;;;;;;;;;;;5051171;28;20417;-60
2023/04/13 06:47:10;;;;;;;;;;;;;;;;;;5049939;28;19936;-59
2023/04/13 06:49:36;;;;;;;;;;;;;;;;;;5050413;28;19920;-59
2023/04/13 06:52:02;;;;;;;;;;;;;;;;;;5050697;28;20349;-59
2023/04/13 06:54:28;;;;;;;;;;;;;;;;;;5049642;28;19944;-59
2023/04/13 06:56:53;;;;;;;;;;;;;;;;;;5050733;28;19920;-59
2023/04/13 06:59:22;;;;;;;;;;;;;;;;;;5050470;28;19925;-59
2023/04/13 07:01:48;;;;;;;;;;;;;;;;;;5050341;28;20311;-61
2023/04/13 07:04:14;;;;;;;;;;;;;;;;;;5050050;28;20413;-60
2023/04/13 07:06:40;;;;;;;;;;;;;;;;;;5045552;28;19968;-60
2023/04/13 07:09:06;;;;;;;;;;;;;;;;;;5046459;28;19978;-60
2023/04/13 07:11:32;;;;;;;;;;;;;;;;;;5048763;28;19928;-58
2023/04/13 07:13:58;;;;;;;;;;;;;;;;;;5045786;28;19947;-59
2023/04/13 07:16:24;;;;;;;;;;;;;;;;;;5050493;28;19921;-57
2023/04/13 07:18:50;;;;;;;;;;;;;;;;;;5049539;28;19935;-58
2023/04/13 07:21:16;;;;;;;;;;;;;;;;;;5050361;28;20008;-59
2023/04/13 07:23:42;;;;;;;;;;;;;;;;;;5048444;28;20000;-60
2023/04/13 07:26:08;;;;;;;;;;;;;;;;;;5044577;28;19925;-58
2023/04/13 07:28:34;;;;;;;;;;;;;;;;;;5049312;28;19933;-59
2023/04/13 07:31:01;;;;;;;;;;;;;;;;;;5050377;28;19924;-59
2023/04/13 07:33:27;;;;;;;;;;;;;;;;;;5048109;28;19927;-59
2023/04/13 07:35:54;;;;;;;;;;;;;;;;;;5050008;28;19921;-59
2023/04/13 07:38:21;;;;;;;;;;;;;;;;;;5048576;28;20353;-59
2023/04/13 07:40:47;;;;;;;;;;;;;;;;;;5049474;28;19931;-59
2023/04/13 07:43:13;;;;;;;;;;;;;;;;;;5049479;28;19920;-63
2023/04/13 07:45:39;;;;;;;;;;;;;;;;;;5048115;28;19978;-62
2023/04/13 07:48:05;;;;;;;;;;;;;;;;;;5046760;28;19979;-62
2023/04/13 07:50:31;;;;;;;;;;;;;;;;;;5049045;28;19968;-62
2023/04/13 07:52:57;;;;;;;;;;;;;;;;;;5049788;28;19968;-62
2023/04/13 07:55:23;;;;;;;;;;;;;;;;;;5048150;28;19924;-62
2023/04/13 07:57:49;;;;;;;;;;;;;;;;;;5048881;28;19982;-61
2023/04/13 08:00:15;;;;;;;;;;;;;;;;;;5042651;28;19929;-60
2023/04/13 08:02:41;;;;;;;;;;;;;;;;;;5048382;28;19928;-60
2023/04/13 08:05:07;;;;;;;;;;;;;;;;;;5042087;28;19929;-60
2023/04/13 08:07:33;;;;;;;;;;;;;;;;;;5046911;28;20440;-61
2023/04/13 08:10:02;;;;;;;;;;;;;;;;;;5048396;28;19928;-63
2023/04/13 08:12:28;;;;;;;;;;;;;;;;;;5051087;28;20013;-63
2023/04/13 08:14:53;;;;;;;;;;;;;;;;;;5052033;28;20332;-62
2023/04/13 08:17:20;;;;;;;;;;;;;;;;;;5047224;28;19925;-60
2023/04/13 08:19:46;;;;;;;;;;;;;;;;;;5046334;28;19982;-62
2023/04/13 08:22:12;;;;;;;;;;;;;;;;;;5045618;28;19929;-62
2023/04/13 08:24:38;;;;;;;;;;;;;;;;;;5047830;28;19921;-60
2023/04/13 08:27:04;;;;;;;;;;;;;;;;;;5047444;28;19929;-62
2023/04/13 08:29:30;;;;;;;;;;;;;;;;;;5049410;28;19925;-62
2023/04/13 08:31:56;;;;;;;;;;;;;;;;;;5045885;28;20018;-63
2023/04/13 08:34:22;;;;;;;;;;;;;;;;;;5050907;28;19929;-62
2023/04/13 08:36:49;;;;;;;;;;;;;;;;;;5047971;28;19925;-63
2023/04/13 08:39:15;;;;;;;;;;;;;;;;;;5051826;28;19933;-62
2023/04/13 08:41:41;;;;;;;;;;;;;;;;;;5052138;28;20454;-62
2023/04/13 08:44:07;;;;;;;;;;;;;;;;;;5053376;28;19975;-62
2023/04/13 08:46:33;;;;;;;;;;;;;;;;;;5051840;28;19968;-63
2023/04/13 08:48:59;;;;;;;;;;;;;;;;;;5052548;28;19972;-63
2023/04/13 08:51:27;;;;;;;;;;;;;;;;;;5051159;28;19925;-63
2023/04/13 08:53:54;;;;;;;;;;;;;;;;;;5052207;28;19921;-62
2023/04/13 08:56:21;;;;;;;;;;;;;;;;;;5052589;28;19970;-63
2023/04/13 08:58:47;;;;;;;;;;;;;;;;;;5051906;28;19925;-64
2023/04/13 09:01:13;;;;;;;;;;;;;;;;;;5051346;28;19933;-63
2023/04/13 09:03:39;;;;;;;;;;;;;;;;;;5044331;28;19920;-63
2023/04/13 09:06:05;;;;;;;;;;;;;;;;;;5048405;28;19952;-63
2023/04/13 09:08:34;;;;;;;;;;;;;;;;;;5052033;28;19987;-64
2023/04/13 09:11:00;;;;;;;;;;;;;;;;;;5051999;28;19925;-63
2023/04/13 09:13:26;;;;;;;;;;;;;;;;;;5051403;28;19931;-62
2023/04/13 09:15:52;;;;;;;;;;;;;;;;;;5049915;28;20280;-63
2023/04/13 09:18:18;;;;;;;;;;;;;;;;;;5048822;28;19931;-63
2023/04/13 09:20:44;;;;;;;;;;;;;;;;;;5052203;28;19924;-62
2023/04/13 09:23:11;;;;;;;;;;;;;;;;;;5047006;28;19933;-62
2023/04/13 09:25:37;;;;;;;;;;;;;;;;;;5050908;28;20321;-62
2023/04/13 09:28:03;;;;;;;;;;;;;;;;;;5049939;28;19936;-62
2023/04/13 09:30:29;;;;;;;;;;;;;;;;;;5052287;28;20653;-62
2023/04/13 09:32:55;;;;;;;;;;;;;;;;;;5051441;28;19925;-63
2023/04/13 09:35:21;;;;;;;;;;;;;;;;;;5050953;28;20307;-63
2023/04/13 09:37:48;;;;;;;;;;;;;;;;;;5050291;28;19948;-64
2023/04/13 09:40:14;;;;;;;;;;;;;;;;;;5050960;28;20011;-64
2023/04/13 09:42:40;;;;;;;;;;;;;;;;;;5050919;28;20011;-63
2023/04/13 09:45:06;;;;;;;;;;;;;;;;;;5043469;28;20008;-62
2023/04/13 09:47:32;;;;;;;;;;;;;;;;;;5049504;28;20070;-64
2023/04/13 09:49:58;;;;;;;;;;;;;;;;;;5051408;28;19925;-63
2023/04/13 09:52:24;;;;;;;;;;;;;;;;;;5049154;28;19940;-61
2023/04/13 09:54:50;;;;;;;;;;;;;;;;;;5044890;28;19943;-62
2023/04/13 09:57:16;;;;;;;;;;;;;;;;;;5042166;28;19929;-63
2023/04/13 09:59:42;;;;;;;;;;;;;;;;;;5050015;28;19935;-62
2023/04/13 10:02:08;;;;;;;;;;;;;;;;;;5049689;28;19947;-62
2023/04/13 10:04:34;;;;;;;;;;;;;;;;;;5049560;28;19983;-61
2023/04/13 10:07:00;;;;;;;;;;;;;;;;;;5051087;28;19929;-62
2023/04/13 10:09:26;;;;;;;;;;;;;;;;;;5048648;28;19929;-62
2023/04/13 10:11:52;;;;;;;;;;;;;;;;;;5048896;28;20003;-63
2023/04/13 10:14:18;;;;;;;;;;;;;;;;;;5051074;28;20011;-61
2023/04/13 10:16:45;;;;;;;;;;;;;;;;;;5044798;28;19924;-61
2023/04/13 10:19:11;;;;;;;;;;;;;;;;;;5045932;28;20382;-61
2023/04/13 10:21:38;;;;;;;;;;;;;;;;;;5050378;28;19921;-62
2023/04/13 10:24:04;;;;;;;;;;;;;;;;;;5049511;28;20018;-63
2023/04/13 10:26:30;;;;;;;;;;;;;;;;;;5045455;28;19960;-63
2023/04/13 10:28:56;;;;;;;;;;;;;;;;;;5050483;28;19929;-63
2023/04/13 10:31:22;;;;;;;;;;;;;;;;;;5047637;28;20805;-62
2023/04/13 10:33:48;;;;;;;;;;;;;;;;;;5048627;28;19932;-62
2023/04/13 10:36:14;;;;;;;;;;;;;;;;;;5048181;28;19924;-62
2023/04/13 10:38:40;;;;;;;;;;;;;;;;;;5050026;28;19970;-62
2023/04/13 10:41:06;;;;;;;;;;;;;;;;;;5045427;28;20013;-62
2023/04/13 10:43:33;;;;;;;;;;;;;;;;;;5048911;28;19955;-62
2023/04/13 10:45:59;;;;;;;;;;;;;;;;;;5049846;28;19925;-63
2023/04/13 10:48:26;;;;;;;;;;;;;;;;;;5050515;28;20031;-62
2023/04/13 10:50:52;;;;;;;;;;;;;;;;;;5049314;28;19928;-63
2023/04/13 10:53:17;;;;;;;;;;;;;;;;;;5049369;28;19932;-61
2023/04/13 10:55:43;;;;;;;;;;;;;;;;;;5049884;28;20007;-61
2023/04/13 10:58:09;;;;;;;;;;;;;;;;;;5050213;28;20018;-61
2023/04/13 11:00:35;;;;;;;;;;;;;;;;;;5048488;28;19921;-61
2023/04/13 11:03:01;;;;;;;;;;;;;;;;;;5048000;28;19929;-63
2023/04/13 11:05:28;;;;;;;;;;;;;;;;;;5042278;28;20506;-64
2023/04/13 11:07:55;;;;;;;;;;;;;;;;;;5048401;28;19928;-65
2023/04/13 11:10:21;;;;;;;;;;;;;;;;;;5048689;28;19921;-63
2023/04/13 11:12:47;;;;;;;;;;;;;;;;;;5050014;28;19945;-63
2023/04/13 11:15:13;;;;;;;;;;;;;;;;;;5047780;28;19979;-62
2023/04/13 11:17:39;;;;;;;;;;;;;;;;;;5048482;28;19968;-64
2023/04/13 11:20:09;;;;;;;;;;;;;;;;;;5047190;28;20035;-63
2023/04/13 11:22:35;;;;;;;;;;;;;;;;;;5048586;28;19928;-63
2023/04/13 11:25:01;;;;;;;;;;;;;;;;;;5048979;28;19921;-64
2023/04/13 11:27:27;;;;;;;;;;;;;;;;;;5051621;28;20383;-64
2023/04/13 11:29:53;;;;;;;;;;;;;;;;;;5047891;28;19928;-64
2023/04/13 11:32:21;;;;;;;;;;;;;;;;;;5046072;28;19936;-63
2023/04/13 11:34:48;;;;;;;;;;;;;;;;;;5048979;28;19924;-63
2023/04/13 11:37:14;;;;;;;;;;;;;;;;;;5048514;28;20279;-63
2023/04/13 11:39:42;;;;;;;;;;;;;;;;;;5048884;28;20311;-63
2023/04/13 11:42:09;;;;;;;;;;;;;;;;;;5047804;28;20387;-63
2023/04/13 11:44:35;;;;;;;;;;;;;;;;;;5046813;28;19920;-63
2023/04/13 11:47:01;;;;;;;;;;;;;;;;;;5047645;28;19951;-63
2023/04/13 11:49:27;;;;;;;;;;;;;;;;;;5047322;28;19921;-64
2023/04/13 11:51:53;;;;;;;;;;;;;;;;;;5048640;28;19925;-63
2023/04/13 11:54:19;;;;;;;;;;;;;;;;;;5048516;28;19929;-63
2023/04/13 11:56:46;;;;;;;;;;;;;;;;;;5045236;28;20256;-64
2023/04/13 11:59:12;;;;;;;;;;;;;;;;;;5046848;28;19967;-64
2023/04/13 12:01:39;;;;;;;;;;;;;;;;;;5047942;28;20533;-63
2023/04/13 12:04:05;;;;;;;;;;;;;;;;;;5049828;28;20287;-62
2023/04/13 12:06:31;;;;;;;;;;;;;;;;;;5048529;28;19968;-61
2023/04/13 12:08:57;;;;;;;;;;;;;;;;;;5048588;28;20506;-64
2023/04/13 12:11:24;;;;;;;;;;;;;;;;;;5048773;28;19925;-63
2023/04/13 12:13:52;;;;;;;;;;;;;;;;;;5051608;28;19928;-64
2023/04/13 12:16:18;;;;;;;;;;;;;;;;;;5048894;28;19920;-64
2023/04/13 12:18:45;;;;;;;;;;;;;;;;;;5048711;28;19932;-64
2023/04/13 12:21:11;;;;;;;;;;;;;;;;;;5046141;28;20388;-64
2023/04/13 12:23:37;;;;;;;;;;;;;;;;;;5046239;28;19936;-63
2023/04/13 12:26:07;;;;;;;;;;;;;;;;;;5048555;28;19929;-64
2023/04/13 12:28:33;;;;;;;;;;;;;;;;;;5040377;28;20055;-64
2023/04/13 12:30:59;;;;;;;;;;;;;;;;;;5045804;28;20015;-64
2023/04/13 12:33:25;;;;;;;;;;;;;;;;;;5041472;28;19960;-64
2023/04/13 12:35:51;;;;;;;;;;;;;;;;;;5046517;28;20523;-63
2023/04/13 12:38:17;;;;;;;;;;;;;;;;;;5048618;28;19921;-62
2023/04/13 12:40:42;;;;;;;;;;;;;;;;;;5048339;28;19998;-63
2023/04/13 12:43:08;;;;;;;;;;;;;;;;;;5048598;28;19968;-63
2023/04/13 12:45:34;;;;;;;;;;;;;;;;;;5047903;28;19947;-64
2023/04/13 12:48:00;;;;;;;;;;;;;;;;;;5048597;28;19929;-64
2023/04/13 12:50:26;;;;;;;;;;;;;;;;;;5039012;28;19990;-64
2023/04/13 12:52:52;;;;;;;;;;;;;;;;;;5046315;28;19929;-63
2023/04/13 12:55:18;;;;;;;;;;;;;;;;;;5047933;28;19943;-62
2023/04/13 12:57:44;;;;;;;;;;;;;;;;;;5048730;28;20291;-64
2023/04/13 13:00:11;;;;;;;;;;;;;;;;;;5046761;28;19925;-64
2023/04/13 13:02:37;;;;;;;;;;;;;;;;;;5047976;28;20375;-65
2023/04/13 13:05:03;;;;;;;;;;;;;;;;;;5047653;28;19921;-63
2023/04/13 13:07:29;;;;;;;;;;;;;;;;;;5044828;28;19947;-63
2023/04/13 13:09:57;;;;;;;;;;;;;;;;;;5048025;28;19924;-64
2023/04/13 13:12:28;;;;;;;;;;;;;;;;;;5046078;28;20011;-63
2023/04/13 13:14:54;;;;;;;;;;;;;;;;;;5046057;28;20043;-63
2023/04/13 13:17:20;;;;;;;;;;;;;;;;;;5046656;28;20049;-63
2023/04/13 13:19:46;;;;;;;;;;;;;;;;;;5048268;28;19983;-63
2023/04/13 13:22:12;;;;;;;;;;;;;;;;;;5049370;28;19939;-63
2023/04/13 13:24:38;;;;;;;;;;;;;;;;;;5047382;28;19943;-63
2023/04/13 13:27:04;;;;;;;;;;;;;;;;;;5051792;28;19933;-63
2023/04/13 13:29:32;;;;;;;;;;;;;;;;;;5051929;28;19925;-62
2023/04/13 13:31:58;;;;;;;;;;;;;;;;;;5051146;28;19956;-63
2023/04/13 13:34:24;;;;;;;;;;;;;;;;;;5051915;28;19986;-64
2023/04/13 13:36:50;;;;;;;;;;;;;;;;;;5050903;28;19971;-61
2023/04/13 13:39:16;;;;;;;;;;;;;;;;;;5042754;28;19929;-60
2023/04/13 13:41:42;;;;;;;;;;;;;;;;;;5052170;28;20341;-61
2023/04/13 13:44:08;;;;;;;;;;;;;;;;;;5046848;28;19928;-59
2023/04/13 13:46:35;;;;;;;;;;;;;;;;;;5051769;28;20034;-59
2023/04/13 13:49:01;;;;;;;;;;;;;;;;;;5052752;28;20347;-59
2023/04/13 13:51:27;;;;;;;;;;;;;;;;;;5039074;28;19921;-59
2023/04/13 13:53:53;;;;;;;;;;;;;;;;;;5044404;28;20032;-59
2023/04/13 13:56:19;;;;;;;;;;;;;;;;;;5040746;28;20011;-59
2023/04/13 13:58:45;;;;;;;;;;;;;;;;;;5044336;28;19924;-60
2023/04/13 14:01:11;;;;;;;;;;;;;;;;;;5051941;28;19925;-60
2023/04/13 14:03:37;;;;;;;;;;;;;;;;;;5051941;28;19925;-60
2023/04/13 14:06:03;;;;;;;;;;;;;;;;;;5052011;28;19925;-60
2023/04/13 14:08:29;;;;;;;;;;;;;;;;;;5052250;28;19964;-59
2023/04/13 14:10:55;;;;;;;;;;;;;;;;;;5052475;28;20020;-60
2023/04/13 14:13:22;;;;;;;;;;;;;;;;;;5051737;28;20008;-60
2023/04/13 14:15:47;;;;;;;;;;;;;;;;;;5052174;28;19969;-60
2023/04/13 14:18:13;;;;;;;;;;;;;;;;;;5052630;28;19924;-60
2023/04/13 14:20:39;;;;;;;;;;;;;;;;;;5050988;28;19968;-60
2023/04/13 14:23:05;;;;;;;;;;;;;;;;;;5051616;28;19935;-60
2023/04/13 14:25:31;;;;;;;;;;;;;;;;;;5051749;28;19935;-60
2023/04/13 14:27:57;;;;;;;;;;;;;;;;;;5051679;28;19986;-60
2023/04/13 14:30:23;;;;;;;;;;;;;;;;;;5051866;28;19924;-58
2023/04/13 14:32:50;;;;;;;;;;;;;;;;;;5051981;28;19928;-60
2023/04/13 14:35:16;;;;;;;;;;;;;;;;;;5046929;28;19925;-60
2023/04/13 14:37:42;;;;;;;;;;;;;;;;;;5051350;28;20413;-60
2023/04/13 14:40:15;;;;;;;;;;;;;;;;;;5052520;28;20820;-60
2023/04/13 14:42:41;;;;;;;;;;;;;;;;;;5051241;28;20471;-60
2023/04/13 14:45:10;;;;;;;;;;;;;;;;;;5051537;28;19925;-60
2023/04/13 14:47:36;;;;;;;;;;;;;;;;;;5051834;28;20414;-60
2023/04/13 14:50:02;;;;;;;;;;;;;;;;;;5051516;28;19921;-60
2023/04/13 14:52:28;;;;;;;;;;;;;;;;;;5051269;28;19924;-59
2023/04/13 14:54:54;;;;;;;;;;;;;;;;;;5052350;28;20058;-60
2023/04/13 14:57:20;;;;;;;;;;;;;;;;;;5051682;28;19928;-60
2023/04/13 14:59:46;;;;;;;;;;;;;;;;;;5052274;28;19931;-60
2023/04/13 15:02:12;;;;;;;;;;;;;;;;;;5051693;28;20517;-60
2023/04/13 15:04:41;;;;;;;;;;;;;;;;;;5049915;28;19924;-60
2023/04/13 15:07:08;;;;;;;;;;;;;;;;;;5050502;28;19929;-60
2023/04/13 15:09:33;;;;;;;;;;;;;;;;;;5051631;28;19927;-60
2023/04/13 15:11:59;;;;;;;;;;;;;;;;;;5051415;28;19924;-58
2023/04/13 15:14:25;;;;;;;;;;;;;;;;;;5051899;28;20008;-60
2023/04/13 15:16:51;;;;;;;;;;;;;;;;;;5051882;28;19993;-60
2023/04/13 15:19:17;;;;;;;;;;;;;;;;;;5051196;28;20358;-60
2023/04/13 15:21:43;;;;;;;;;;;;;;;;;;5083774;28;20374;-60
2023/04/13 15:24:10;;;;;;;;;;;;;;;;;;5051440;28;19925;-60
2023/04/13 15:26:36;;;;;;;;;;;;;;;;;;5051013;28;19921;-59
2023/04/13 15:29:02;;;;;;;;;;;;;;;;;;5051714;28;20449;-60
2023/04/13 15:31:28;;;;;;;;;;;;;;;;;;5051511;28;19924;-60
2023/04/13 15:33:54;;;;;;;;;;;;;;;;;;5050836;28;19931;-60
2023/04/13 15:36:20;;;;;;;;;;;;;;;;;;5051654;28;19964;-60
2023/04/13 15:38:46;;;;;;;;;;;;;;;;;;5051553;28;19963;-60
2023/04/13 15:41:12;;;;;;;;;;;;;;;;;;5050487;28;19924;-60
2023/04/13 15:43:39;;;;;;;;;;;;;;;;;;5050937;28;19970;-60
2023/04/13 15:46:05;;;;;;;;;;;;;;;;;;5051431;28;19924;-60
2023/04/13 15:48:31;;;;;;;;;;;;;;;;;;5050206;28;20405;-60
2023/04/13 15:50:57;;;;;;;;;;;;;;;;;;5051018;28;19921;-60
2023/04/13 15:53:23;;;;;;;;;;;;;;;;;;5051071;28;19925;-60
2023/04/13 15:55:49;;;;;;;;;;;;;;;;;;5050490;28;19955;-60
2023/04/13 15:58:15;;;;;;;;;;;;;;;;;;5050900;28;19928;-60
2023/04/13 16:00:41;;;;;;;;;;;;;;;;;;5050990;28;20383;-60
2023/04/13 16:03:07;;;;;;;;;;;;;;;;;;5050392;28;19921;-60
2023/04/13 16:05:33;;;;;;;;;;;;;;;;;;5051044;28;19928;-60
2023/04/13 16:07:59;;;;;;;;;;;;;;;;;;5051097;28;20401;-60
2023/04/13 16:10:25;;;;;;;;;;;;;;;;;;5050856;28;19975;-60
2023/04/13 16:12:53;;;;;;;;;;;;;;;;;;5050694;28;20375;-60
2023/04/13 16:15:19;;;;;;;;;;;;;;;;;;5051042;28;19921;-61
2023/04/13 16:17:46;;;;;;;;;;;;;;;;;;5050985;28;20316;-60
2023/04/13 16:22:40;;;;;;;;;;;;;;;;;;5050677;28;19976;-60
2023/04/13 16:25:06;;;;;;;;;;;;;;;;;;5050699;28;19921;-60
2023/04/13 16:27:34;;;;;;;;;;;;;;;;;;5050209;28;20106;-60
2023/04/13 16:30:03;;;;;;;;;;;;;;;;;;5050518;28;19980;-60
2023/04/13 16:32:29;;;;;;;;;;;;;;;;;;5050623;28;20021;-60
2023/04/13 16:34:55;;;;;;;;;;;;;;;;;;5050331;28;19976;-60
2023/04/13 16:37:21;;;;;;;;;;;;;;;;;;5050878;28;19982;-60
2023/04/13 16:39:47;;;;;;;;;;;;;;;;;;5050813;28;20010;-60
2023/04/13 16:42:13;;;;;;;;;;;;;;;;;;5050143;28;19921;-60